createdAt,value
2018-11-25T00:01:07.803Z,63.90
2018-11-25T00:03:36.380Z,64.90
2018-11-25T00:06:05.486Z,67.80
2018-11-25T00:08:34.266Z,65.13
2018-11-25T00:11:02.923Z,61.37
2018-11-25T00:13:31.861Z,61.67
2018-11-25T00:16:00.436Z,59.90
2018-11-25T00:18:29.042Z,61.83
2018-11-25T00:20:57.608Z,56.27
2018-11-25T00:23:26.182Z,56.70
2018-11-25T00:25:54.736Z,63.10
2018-11-25T00:28:23.263Z,60.03
2018-11-25T00:30:51.796Z,65.00
2018-11-25T00:33:20.376Z,71.37
2018-11-25T00:35:48.993Z,77.77
2018-11-25T00:38:17.852Z,73.80
2018-11-25T00:40:46.479Z,75.40
2018-11-25T00:43:14.983Z,83.07
2018-11-25T00:45:43.540Z,76.47
2018-11-25T00:48:12.059Z,86.07
2018-11-25T00:50:40.648Z,75.60
2018-11-25T00:53:09.163Z,85.13
2018-11-25T00:55:37.923Z,79.50
2018-11-25T00:58:06.476Z,78.30
2018-11-25T01:00:35.170Z,82.92
2018-11-25T01:03:03.796Z,76.90
2018-11-25T01:05:32.486Z,84.50
2018-11-25T01:08:01.188Z,79.93
2018-11-25T01:10:29.851Z,84.20
2018-11-25T01:12:58.376Z,77.67
2018-11-25T01:15:26.981Z,79.87
2018-11-25T01:17:55.519Z,73.50
2018-11-25T01:20:24.066Z,75.67
2018-11-25T01:22:53.634Z,77.77
2018-11-25T01:25:23.262Z,74.17
2018-11-25T01:27:53.241Z,72.53
2018-11-25T01:30:21.753Z,77.07
2018-11-25T01:32:50.382Z,70.90
2018-11-25T01:35:18.985Z,76.80
2018-11-25T01:37:47.743Z,68.53
2018-11-25T01:40:18.095Z,69.60
2018-11-25T01:42:46.680Z,70.83
2018-11-25T01:45:17.097Z,75.80
2018-11-25T01:47:45.824Z,77.83
2018-11-25T01:50:15.637Z,71.33
2018-11-25T01:52:44.234Z,71.83
2018-11-25T01:55:15.644Z,78.33
2018-11-25T01:57:44.247Z,74.23
2018-11-25T02:00:21.109Z,73.77
2018-11-25T02:02:49.943Z,76.80
2018-11-25T02:05:18.568Z,80.30
2018-11-25T02:07:47.437Z,82.70
2018-11-25T02:10:17.884Z,86.43
2018-11-25T02:12:47.555Z,82.13
2018-11-25T02:15:17.644Z,87.87
2018-11-25T02:17:46.269Z,89.00
2018-11-25T02:20:16.267Z,97.03
2018-11-25T02:22:44.884Z,99.00
2018-11-25T02:25:13.388Z,95.17
2018-11-25T02:27:42.129Z,100.30
2018-11-25T02:30:12.044Z,91.33
2018-11-25T02:32:41.638Z,104.50
2018-11-25T02:35:11.191Z,95.43
2018-11-25T02:37:39.789Z,104.73
2018-11-25T02:40:09.906Z,107.30
2018-11-25T02:42:38.396Z,117.17
2018-11-25T02:45:13.955Z,112.40
2018-11-25T02:47:42.489Z,114.60
2018-11-25T02:50:28.127Z,112.57
2018-11-25T02:52:57.978Z,103.33
2018-11-25T02:55:27.029Z,102.83
2018-11-25T02:57:55.592Z,106.20
2018-11-25T03:00:24.202Z,95.53
2018-11-25T03:02:52.809Z,93.03
2018-11-25T03:05:21.500Z,94.67
2018-11-25T03:07:50.087Z,94.27
2018-11-25T03:10:18.822Z,90.93
2018-11-25T03:12:47.529Z,90.00
2018-11-25T03:15:17.238Z,77.27
2018-11-25T03:17:45.893Z,84.70
2018-11-25T03:20:15.419Z,88.07
2018-11-25T03:22:43.962Z,85.80
2018-11-25T03:25:14.551Z,83.20
2018-11-25T03:27:43.130Z,83.60
2018-11-25T03:30:13.664Z,81.77
2018-11-25T03:32:42.421Z,72.33
2018-11-25T03:35:11.931Z,84.80
2018-11-25T03:37:40.579Z,82.90
2018-11-25T03:40:12.888Z,80.10
2018-11-25T03:42:41.486Z,75.53
2018-11-25T03:45:14.124Z,81.57
2018-11-25T03:47:42.677Z,75.37
2018-11-25T03:50:14.911Z,79.23
2018-11-25T03:52:43.605Z,82.23
2018-11-25T03:55:14.830Z,78.83
2018-11-25T03:57:43.437Z,85.50
2018-11-25T04:00:16.056Z,85.83
2018-11-25T04:02:44.825Z,81.10
2018-11-25T04:05:15.440Z,78.97
2018-11-25T04:07:44.071Z,75.47
2018-11-25T04:10:15.503Z,81.67
2018-11-25T04:12:44.212Z,83.80
2018-11-25T04:15:14.875Z,76.10
2018-11-25T04:17:43.487Z,75.50
2018-11-25T04:20:14.056Z,83.70
2018-11-25T04:22:42.620Z,82.00
2018-11-25T04:25:11.738Z,75.97
2018-11-25T04:30:14.355Z,76.43
2018-11-25T04:32:43.517Z,73.10
2018-11-25T04:35:13.053Z,76.93
2018-11-25T04:37:41.799Z,67.27
2018-11-25T04:40:13.525Z,67.47
2018-11-25T04:42:41.983Z,62.73
2018-11-25T04:45:11.831Z,61.63
2018-11-25T04:47:40.402Z,63.57
2018-11-25T04:50:10.806Z,64.90
2018-11-25T04:52:39.510Z,71.00
2018-11-25T04:55:08.528Z,72.90
2018-11-25T04:57:37.034Z,67.00
2018-11-25T05:00:11.326Z,71.27
2018-11-25T05:02:40.567Z,71.53
2018-11-25T05:05:11.022Z,63.10
2018-11-25T05:07:39.572Z,64.07
2018-11-25T05:10:12.126Z,71.70
2018-11-25T05:12:40.902Z,79.27
2018-11-25T05:15:12.039Z,77.37
2018-11-25T05:17:40.548Z,80.63
2018-11-25T05:20:10.674Z,74.40
2018-11-25T05:22:39.365Z,85.17
2018-11-25T05:25:11.445Z,72.73
2018-11-25T05:27:40.128Z,76.53
2018-11-25T05:30:11.432Z,74.33
2018-11-25T05:32:39.907Z,71.03
2018-11-25T05:35:10.246Z,69.70
2018-11-25T05:37:38.798Z,67.23
2018-11-25T05:40:09.713Z,64.13
2018-11-25T05:42:38.534Z,63.00
2018-11-25T05:45:10.968Z,58.10
2018-11-25T05:47:40.514Z,62.13
2018-11-25T05:50:11.641Z,61.43
2018-11-25T05:52:40.392Z,63.23
2018-11-25T05:55:09.989Z,67.60
2018-11-25T05:57:38.520Z,66.47
2018-11-25T06:00:12.539Z,66.00
2018-11-25T06:02:41.098Z,61.40
2018-11-25T06:05:09.634Z,61.83
2018-11-25T06:07:38.294Z,64.57
2018-11-25T06:10:09.194Z,68.20
2018-11-25T06:12:37.836Z,61.83
2018-11-25T06:15:08.787Z,55.80
2018-11-25T06:17:37.275Z,56.00
2018-11-25T06:20:07.983Z,57.43
2018-11-25T06:22:36.503Z,52.03
2018-11-25T06:25:05.266Z,58.87
2018-11-25T06:27:38.181Z,54.83
2018-11-25T06:30:02.343Z,61.70
2018-11-25T06:32:30.826Z,63.77
2018-11-25T06:34:59.290Z,66.60
2018-11-25T06:37:27.794Z,65.20
2018-11-25T06:39:56.247Z,72.73
2018-11-25T06:42:24.767Z,72.37
2018-11-25T06:44:53.329Z,74.53
2018-11-25T06:47:21.931Z,76.20
2018-11-25T06:49:50.388Z,70.37
2018-11-25T06:52:19.115Z,73.57
2018-11-25T06:54:47.758Z,64.83
2018-11-25T06:57:17.127Z,62.90
2018-11-25T06:59:45.647Z,61.60
2018-11-25T07:02:14.234Z,57.07
2018-11-25T07:04:43.610Z,50.63
2018-11-25T07:07:12.146Z,54.17
2018-11-25T07:09:40.719Z,57.83
2018-11-25T07:12:09.234Z,64.90
2018-11-25T07:14:37.755Z,61.77
2018-11-25T07:17:06.533Z,61.07
2018-11-25T07:19:35.047Z,57.37
2018-11-25T07:22:03.588Z,55.77
2018-11-25T07:24:32.282Z,53.40
2018-11-25T07:27:00.812Z,53.23
2018-11-25T07:29:29.573Z,48.33
2018-11-25T07:31:58.110Z,48.57
2018-11-25T07:34:26.638Z,52.37
2018-11-25T07:36:55.194Z,53.67
2018-11-25T07:39:23.698Z,51.50
2018-11-25T07:41:52.527Z,59.77
2018-11-25T07:44:21.031Z,64.87
2018-11-25T07:46:49.616Z,63.77
2018-11-25T07:49:18.350Z,70.47
2018-11-25T07:51:47.103Z,74.53
2018-11-25T07:54:15.781Z,70.90
2018-11-25T07:56:44.282Z,69.50
2018-11-25T07:59:12.776Z,64.40
2018-11-25T08:01:41.559Z,69.07
2018-11-25T08:04:10.058Z,65.60
2018-11-25T08:06:38.570Z,67.63
2018-11-25T08:09:08.820Z,68.30
2018-11-25T08:11:37.532Z,71.80
2018-11-25T08:14:06.087Z,70.30
2018-11-25T08:16:34.695Z,69.03
2018-11-25T08:19:03.263Z,63.00
2018-11-25T08:21:31.734Z,61.93
2018-11-25T08:24:00.371Z,67.27
2018-11-25T08:26:28.866Z,59.70
2018-11-25T08:28:57.315Z,58.90
2018-11-25T08:31:25.892Z,61.13
2018-11-25T08:33:54.338Z,85.00
2018-11-25T08:36:23.133Z,70.90
2018-11-25T08:38:52.660Z,70.73
2018-11-25T08:41:22.035Z,61.87
2018-11-25T08:43:50.560Z,65.30
2018-11-25T08:46:19.141Z,54.70
2018-11-25T08:48:48.010Z,53.10
2018-11-25T08:51:16.516Z,46.17
2018-11-25T08:53:45.190Z,41.20
2018-11-25T08:56:13.806Z,40.30
2018-11-25T08:58:42.283Z,42.40
2018-11-25T09:01:10.871Z,40.10
2018-11-25T09:03:39.534Z,41.10
2018-11-25T09:06:08.265Z,39.03
2018-11-25T09:08:36.823Z,39.50
2018-11-25T09:11:05.535Z,46.13
2018-11-25T09:13:34.609Z,51.93
2018-11-25T09:16:04.266Z,47.33
2018-11-25T09:18:33.320Z,44.30
2018-11-25T09:21:01.823Z,43.47
2018-11-25T09:23:30.655Z,46.67
2018-11-25T09:25:59.265Z,47.37
2018-11-25T09:28:27.967Z,51.77
2018-11-25T09:30:57.288Z,48.27
2018-11-25T09:33:25.879Z,48.10
2018-11-25T09:35:54.351Z,51.13
2018-11-25T09:38:22.919Z,56.00
2018-11-25T09:40:55.154Z,59.93
2018-11-25T09:43:20.296Z,60.13
2018-11-25T09:45:49.381Z,52.40
2018-11-25T09:48:18.096Z,57.83
2018-11-25T09:50:46.599Z,44.77
2018-11-25T09:53:15.052Z,43.90
2018-11-25T09:55:43.718Z,42.57
2018-11-25T09:58:12.223Z,43.03
2018-11-25T10:00:41.037Z,46.30
2018-11-25T10:03:09.726Z,50.40
2018-11-25T10:05:38.346Z,49.17
2018-11-25T10:08:06.876Z,45.87
2018-11-25T10:10:35.429Z,42.23
2018-11-25T10:13:04.731Z,42.70
2018-11-25T10:15:33.218Z,39.97
2018-11-25T10:18:01.802Z,40.43
2018-11-25T10:20:31.675Z,39.33
2018-11-25T10:23:00.342Z,39.30
2018-11-25T10:25:28.948Z,38.77
2018-11-25T10:27:57.474Z,36.97
2018-11-25T10:30:27.167Z,37.13
2018-11-25T10:32:58.012Z,39.13
2018-11-25T10:35:26.526Z,36.47
2018-11-25T10:37:55.680Z,36.07
2018-11-25T10:40:24.931Z,39.37
2018-11-25T10:42:53.638Z,36.03
2018-11-25T10:45:24.602Z,33.53
2018-11-25T10:47:53.288Z,26.77
2018-11-25T10:50:22.374Z,28.27
2018-11-25T10:52:51.195Z,17.17
2018-11-25T10:55:20.877Z,16.50
2018-11-25T10:57:51.348Z,23.83
2018-11-25T11:00:43.150Z,26.27
2018-11-25T11:03:17.034Z,26.57
2018-11-25T11:05:50.850Z,27.07
2018-11-25T11:08:19.619Z,31.27
2018-11-25T11:10:48.126Z,31.23
2018-11-25T11:13:16.770Z,28.53
2018-11-25T11:15:45.364Z,27.10
2018-11-25T11:18:14.324Z,26.27
2018-11-25T11:20:42.977Z,27.30
2018-11-25T11:23:11.455Z,25.67
2018-11-25T11:25:40.059Z,29.57
2018-11-25T11:28:08.840Z,27.03
2018-11-25T11:30:37.810Z,28.35
2018-11-25T11:33:07.015Z,26.80
2018-11-25T11:35:35.501Z,28.90
2018-11-25T11:38:04.159Z,26.57
2018-11-25T11:40:32.737Z,27.50
2018-11-25T11:43:01.589Z,27.77
2018-11-25T11:45:30.230Z,21.07
2018-11-25T11:47:58.857Z,12.53
2018-11-25T11:50:27.611Z,12.17
2018-11-25T11:52:59.043Z,14.20
2018-11-25T11:55:29.569Z,12.23
2018-11-25T11:57:59.741Z,12.70
2018-11-25T12:00:31.091Z,9.77
2018-11-25T12:03:00.713Z,11.60
2018-11-25T12:05:29.763Z,12.00
2018-11-25T12:07:58.375Z,12.13
2018-11-25T12:10:27.009Z,14.90
2018-11-25T12:12:55.600Z,11.00
2018-11-25T12:15:30.767Z,11.63
2018-11-25T12:17:55.410Z,15.50
2018-11-25T12:20:24.979Z,16.90
2018-11-25T12:22:55.518Z,16.40
2018-11-25T12:25:24.631Z,18.07
2018-11-25T12:27:53.400Z,15.47
2018-11-25T12:30:21.887Z,13.93
2018-11-25T12:32:51.502Z,8.47
2018-11-25T12:35:21.091Z,6.70
2018-11-25T12:37:50.802Z,7.67
2018-11-25T12:40:21.613Z,5.50
2018-11-25T12:42:51.751Z,7.97
2018-11-25T12:45:20.244Z,8.97
2018-11-25T12:47:50.028Z,8.23
2018-11-25T12:50:21.272Z,11.40
2018-11-25T12:52:50.878Z,9.47
2018-11-25T12:55:21.747Z,14.10
2018-11-25T12:57:51.588Z,13.63
2018-11-25T13:00:27.961Z,12.97
2018-11-25T13:02:57.703Z,13.77
2018-11-25T13:05:27.489Z,12.40
2018-11-25T13:07:57.142Z,11.17
2018-11-25T13:10:26.830Z,14.20
2018-11-25T13:24:05.392Z,14.93
2018-11-25T13:26:34.917Z,13.40
2018-11-25T13:29:04.446Z,13.77
2018-11-25T13:31:34.035Z,13.57
2018-11-25T13:34:03.630Z,11.93
2018-11-25T13:36:33.320Z,11.47
2018-11-25T13:48:14.358Z,11.73
2018-11-25T13:50:44.047Z,10.30
2018-11-25T13:53:13.678Z,9.67
2018-11-25T13:55:43.421Z,10.80
2018-11-25T14:03:10.332Z,11.53
2018-11-25T14:05:53.214Z,13.87
2018-11-25T14:08:21.672Z,14.73
2018-11-25T14:11:01.599Z,14.33
2018-11-25T14:13:34.062Z,15.87
2018-11-25T14:16:06.729Z,15.30
2018-11-25T14:18:38.513Z,14.80
2018-11-25T14:21:10.044Z,15.07
2018-11-25T14:23:41.272Z,15.60
2018-11-25T14:26:17.006Z,15.40
2018-11-25T14:28:48.671Z,17.17
2018-11-25T14:31:19.694Z,17.70
2018-11-25T14:33:50.763Z,17.83
2018-11-25T14:36:21.677Z,16.53
2018-11-25T14:38:52.439Z,15.70
2018-11-25T14:41:23.341Z,14.83
2018-11-25T14:43:54.382Z,13.27
2018-11-25T14:46:25.070Z,14.50
2018-11-25T14:48:56.894Z,13.83
2018-11-25T14:51:27.538Z,13.93
2018-11-25T14:53:58.335Z,15.67
2018-11-25T14:56:28.633Z,17.40
2018-11-25T14:58:58.609Z,18.27
2018-11-25T15:01:28.644Z,37.73
2018-11-25T15:03:58.939Z,69.70
2018-11-25T15:06:29.459Z,85.03
2018-11-25T15:08:59.030Z,74.40
2018-11-25T15:11:29.290Z,33.83
2018-11-25T15:13:59.214Z,29.70
2018-11-25T15:16:29.248Z,30.93
2018-11-25T15:18:59.352Z,70.03
2018-11-25T15:21:29.639Z,77.23
2018-11-25T15:24:00.310Z,73.60
2018-11-25T15:26:30.791Z,94.37
2018-11-25T15:29:01.342Z,80.20
2018-11-25T15:31:31.349Z,102.77
2018-11-25T15:34:01.461Z,92.23
2018-11-25T15:36:31.544Z,87.80
2018-11-25T15:39:01.508Z,77.17
2018-11-25T15:41:31.902Z,72.23
2018-11-25T15:44:01.928Z,62.80
2018-11-25T15:46:32.441Z,72.73
2018-11-25T15:49:02.591Z,72.47
2018-11-25T15:51:32.710Z,65.57
2018-11-25T15:54:02.870Z,61.80
2018-11-25T15:56:32.903Z,66.17
2018-11-25T15:59:03.168Z,47.20
2018-11-25T16:01:33.221Z,47.30
2018-11-25T16:04:03.353Z,37.00
2018-11-25T16:06:35.373Z,38.40
2018-11-25T16:09:07.965Z,37.40
2018-11-25T16:11:38.091Z,31.50
2018-11-25T16:14:08.097Z,33.93
2018-11-25T16:16:39.293Z,33.97
2018-11-25T16:19:09.249Z,39.13
2018-11-25T16:21:39.162Z,44.27
2018-11-25T16:24:09.319Z,53.73
2018-11-25T16:26:40.418Z,48.40
2018-11-25T16:29:14.412Z,50.70
2018-11-25T16:31:45.406Z,53.10
2018-11-25T16:34:15.418Z,50.47
2018-11-25T16:36:45.406Z,40.93
2018-11-25T16:39:16.088Z,39.80
2018-11-25T16:41:46.114Z,38.20
2018-11-25T16:44:17.279Z,43.57
2018-11-25T16:46:46.525Z,42.30
2018-11-25T16:49:16.580Z,38.57
2018-11-25T16:51:46.672Z,38.23
2018-11-25T16:54:16.834Z,40.60
2018-11-25T16:56:47.597Z,37.20
2018-11-25T16:59:17.693Z,41.50
2018-11-25T17:01:47.736Z,57.97
2018-11-25T17:04:17.858Z,48.77
2018-11-25T17:06:49.905Z,51.77
2018-11-25T17:09:20.137Z,58.83
2018-11-25T17:11:50.388Z,60.60
2018-11-25T17:14:20.568Z,63.77
2018-11-25T17:16:50.912Z,77.07
2018-11-25T17:19:22.157Z,80.40
2018-11-25T17:21:53.015Z,100.20
2018-11-25T17:24:23.218Z,130.33
2018-11-25T17:26:53.464Z,111.30
2018-11-25T17:29:23.637Z,96.70
2018-11-25T17:32:04.760Z,87.23
2018-11-25T17:34:35.398Z,68.37
2018-11-25T17:37:06.580Z,53.87
2018-11-25T17:39:36.911Z,44.10
2018-11-25T17:42:07.388Z,41.40
2018-11-25T17:44:37.669Z,41.90
2018-11-25T17:47:09.703Z,40.27
2018-11-25T17:49:40.023Z,40.10
2018-11-25T17:52:10.550Z,41.63
2018-11-25T17:54:40.925Z,34.50
2018-11-25T17:57:11.563Z,36.93
2018-11-25T17:59:41.906Z,35.57
2018-11-25T18:02:12.432Z,44.50
2018-11-25T18:04:42.860Z,40.00
2018-11-25T18:07:13.466Z,44.13
2018-11-25T18:09:43.842Z,110.77
2018-11-25T18:12:14.243Z,85.87
2018-11-25T18:14:44.573Z,64.47
2018-11-25T18:17:15.266Z,48.20
2018-11-25T18:19:45.561Z,42.20
2018-11-25T18:22:18.996Z,38.98
2018-11-25T18:24:49.331Z,39.67
2018-11-25T18:27:20.514Z,34.30
2018-11-25T18:29:51.238Z,35.03
2018-11-25T18:32:21.723Z,34.27
2018-11-25T18:34:52.035Z,38.50
2018-11-25T18:37:22.481Z,39.87
2018-11-25T18:39:53.520Z,40.07
2018-11-25T18:42:24.386Z,36.60
2018-11-25T18:44:54.802Z,41.83
2018-11-25T18:47:25.241Z,44.47
2018-11-25T18:49:55.614Z,45.83
2018-11-25T18:52:26.083Z,47.00
2018-11-25T18:54:55.223Z,41.80
2018-11-25T18:57:25.870Z,40.13
2018-11-25T18:59:56.305Z,56.87
2018-11-25T19:02:33.015Z,47.37
2018-11-25T19:05:03.383Z,41.27
2018-11-25T19:07:33.762Z,38.60
2018-11-25T19:10:04.774Z,37.90
2018-11-25T19:12:43.695Z,35.47
2018-11-25T19:15:08.153Z,37.60
2018-11-25T19:17:38.302Z,46.63
2018-11-25T19:20:28.276Z,58.97
2018-11-25T19:22:59.271Z,65.43
2018-11-25T19:25:29.575Z,47.87
2018-11-25T19:27:59.791Z,37.40
2018-11-25T19:30:30.208Z,33.92
2018-11-25T19:33:01.431Z,35.93
2018-11-25T19:39:09.025Z,43.03
2018-11-25T19:41:39.258Z,36.20
2018-11-25T19:44:09.431Z,37.83
2018-11-25T19:46:39.647Z,39.80
2018-11-25T19:49:09.807Z,36.50
2018-11-25T19:51:40.238Z,39.30
2018-11-25T19:54:10.473Z,34.03
2018-11-25T19:56:40.838Z,38.57
2018-11-25T19:59:11.025Z,43.23
2018-11-25T20:01:42.269Z,38.50
2018-11-25T20:04:12.577Z,40.13
2018-11-25T20:06:42.804Z,44.17
2018-11-25T20:09:14.277Z,45.03
2018-11-25T20:11:44.381Z,44.77
2018-11-25T20:14:14.551Z,42.77
2018-11-25T20:16:49.784Z,45.50
2018-11-25T20:19:20.103Z,45.43
2018-11-25T20:21:55.462Z,42.60
2018-11-25T20:24:25.562Z,46.80
2018-11-25T20:27:00.995Z,43.90
2018-11-25T20:29:31.158Z,37.60
2018-11-25T20:32:06.327Z,41.17
2018-11-25T20:34:36.400Z,37.20
2018-11-25T20:37:06.557Z,35.60
2018-11-25T20:39:37.536Z,36.43
2018-11-25T20:42:07.657Z,34.90
2018-11-25T20:44:38.545Z,36.73
2018-11-25T20:47:09.607Z,42.87
2018-11-25T20:49:39.719Z,37.40
2018-11-25T20:52:15.250Z,41.10
2018-11-25T20:54:45.396Z,42.13
2018-11-25T20:57:15.463Z,42.47
2018-11-25T20:59:45.690Z,41.73
2018-11-25T21:02:20.190Z,43.83
2018-11-25T21:04:46.239Z,54.07
2018-11-25T21:07:16.374Z,67.97
2018-11-25T21:09:48.099Z,67.83
2018-11-25T21:12:18.238Z,68.63
2018-11-25T21:14:48.547Z,72.30
2018-11-25T21:17:18.672Z,64.00
2018-11-25T21:19:48.682Z,59.77
2018-11-25T21:22:18.934Z,57.10
2018-11-25T21:24:49.130Z,51.93
2018-11-25T21:27:19.434Z,52.73
2018-11-25T21:29:49.562Z,42.57
2018-11-25T21:32:19.659Z,54.47
2018-11-25T21:34:49.770Z,56.67
2018-11-25T21:37:19.943Z,54.47
2018-11-25T21:39:50.071Z,58.67
2018-11-25T21:42:20.247Z,52.47
2018-11-25T21:44:50.451Z,56.50
2018-11-25T21:47:20.544Z,51.87
2018-11-25T21:49:50.773Z,54.80
2018-11-25T21:52:21.202Z,53.27
2018-11-25T21:54:51.346Z,53.80
2018-11-25T21:57:23.112Z,51.37
2018-11-25T21:59:53.302Z,51.53
2018-11-25T22:02:23.502Z,53.20
2018-11-25T22:04:53.542Z,54.93
2018-11-25T22:07:23.672Z,52.90
2018-11-25T22:09:53.836Z,55.57
2018-11-25T22:12:24.074Z,61.03
2018-11-25T22:14:54.177Z,56.23
2018-11-25T22:17:24.316Z,54.13
2018-11-25T22:19:54.935Z,56.30
2018-11-25T22:22:25.062Z,56.50
2018-11-25T22:24:56.274Z,58.10
2018-11-25T22:27:26.398Z,57.90
2018-11-25T22:29:56.683Z,59.43
2018-11-25T22:32:26.923Z,56.85
2018-11-25T22:34:57.057Z,56.60
2018-11-25T22:37:27.317Z,61.83
2018-11-25T22:39:57.410Z,59.97
2018-11-25T22:42:27.594Z,62.80
2018-11-25T22:44:57.803Z,69.23
2018-11-25T22:47:27.963Z,73.57
2018-11-25T22:49:58.154Z,72.90
2018-11-25T22:52:28.315Z,79.17
2018-11-25T22:54:58.642Z,76.03
2018-11-25T22:57:29.036Z,75.13
2018-11-25T22:59:59.332Z,77.53
2018-11-25T23:02:29.827Z,83.43
2018-11-25T23:05:11.061Z,93.30
2018-11-25T23:07:42.016Z,94.50
2018-11-25T23:10:12.259Z,95.93
2018-11-25T23:12:42.582Z,107.00
2018-11-25T23:15:12.919Z,109.43
2018-11-25T23:17:43.350Z,115.50
2018-11-25T23:20:13.695Z,132.37
2018-11-25T23:22:44.011Z,125.50
2018-11-25T23:25:14.393Z,132.67
2018-11-25T23:27:44.658Z,141.80
2018-11-25T23:30:15.134Z,145.13
2018-11-25T23:32:45.480Z,147.63
2018-11-25T23:35:18.290Z,159.07
2018-11-25T23:37:48.632Z,157.40
2018-11-25T23:40:19.114Z,170.43
2018-11-25T23:42:49.440Z,174.93
2018-11-25T23:45:19.846Z,180.27
2018-11-25T23:47:50.382Z,200.33
2018-11-25T23:50:20.644Z,192.00
2018-11-25T23:52:51.149Z,190.00
2018-11-25T23:55:21.417Z,196.90
2018-11-25T23:57:51.687Z,210.70
